EGLL/LHR METAR and TAF weather

Enter ICAO airport designator
Station Type Date Time Source
EGLL METAR 2020/02/28 07:20 UTC NOAA

EGLL 280720Z AUTO 15008KT 130V190 9999 -RA SCT038 03/00 Q1012


Station Type Date Time Source
EGLL Decoded METAR 2020/02/28 07:20 UTC NOAA

London / Heathrow Airport, United Kingdom (EGLL) 51-29N 000-27W 0M
Feb 28, 2020 - 02:20 AM EST / 2020.02.28 0720 UTC
Wind: from the SSE (150 degrees) at 9 MPH (8 KT) (direction variable):0
Visibility: greater than 7 mile(s):0
Sky conditions: partly cloudy
Weather: light rain
Temperature: 37 F (3 C)
Dew Point: 32 F (0 C)
Relative Humidity: 80%
Pressure (altimeter): 29.88 in. Hg (1012 hPa)
ob: EGLL 280720Z AUTO 15008KT 130V190 9999 -RA SCT038 03/00 Q1012
cycle: 7

Station Type Date Time Source
EGLL TAF 2020/02/28 06:07 UTC NOAA

TAF EGLL 280455Z 2806/2912 16005KT 9999 SCT030
BECMG 2808/2811 17015G25KT BKN010
TEMPO 2808/2817 4000 RA BKN006
BECMG 2812/2815 23018G28KT
BECMG 2820/2823 BKN020
TEMPO 2904/2909 6000 SHRA BKN012 PROB30
TEMPO 2904/2908 23022G38KT 3000 +SHRA BKN008
BECMG 2909/2912 26020G30KT

Example: see airport list